sensor_id;sensor_type;location;lat;lon;timestamp;P1;durP1;ratioP1;P2;durP2;ratioP2
43511;SDS011;34054;52.100;5.116;2022-08-19T00:00:08;3.90;;;2.75;;
43511;SDS011;34054;52.100;5.116;2022-08-19T00:00:46;3.55;;;2.80;;
43511;SDS011;34054;52.100;5.116;2022-08-19T00:01:18;5.20;;;3.50;;
43511;SDS011;34054;52.100;5.116;2022-08-19T00:01:51;2.42;;;2.13;;
43511;SDS011;34054;52.100;5.116;2022-08-19T00:02:26;3.88;;;3.05;;
43511;SDS011;34054;52.100;5.116;2022-08-19T00:02:57;7.53;;;2.78;;
43511;SDS011;34054;52.100;5.116;2022-08-19T00:03:29;4.50;;;3.47;;
43511;SDS011;34054;52.100;5.116;2022-08-19T00:04:03;3.25;;;2.42;;
43511;SDS011;34054;52.100;5.116;2022-08-19T00:04:37;3.28;;;2.78;;
43511;SDS011;34054;52.100;5.116;2022-08-19T00:05:09;5.78;;;3.50;;
43511;SDS011;34054;52.100;5.116;2022-08-19T00:05:43;3.47;;;2.70;;
43511;SDS011;34054;52.100;5.116;2022-08-19T00:06:15;3.55;;;2.35;;
43511;SDS011;34054;52.100;5.116;2022-08-19T00:06:48;3.13;;;2.55;;
43511;SDS011;34054;52.100;5.116;2022-08-19T00:07:20;4.22;;;3.20;;
43511;SDS011;34054;52.100;5.116;2022-08-19T00:07:52;4.75;;;2.20;;
43511;SDS011;34054;52.100;5.116;2022-08-19T00:08:24;4.07;;;3.75;;
43511;SDS011;34054;52.100;5.116;2022-08-19T00:08:58;3.85;;;2.88;;
43511;SDS011;34054;52.100;5.116;2022-08-19T00:09:31;6.10;;;3.75;;
43511;SDS011;34054;52.100;5.116;2022-08-19T00:10:04;3.83;;;2.03;;
43511;SDS011;34054;52.100;5.116;2022-08-19T00:10:38;3.95;;;3.55;;
43511;SDS011;34054;52.100;5.116;2022-08-19T00:11:10;3.25;;;2.95;;
43511;SDS011;34054;52.100;5.116;2022-08-19T00:11:43;3.15;;;2.80;;
43511;SDS011;34054;52.100;5.116;2022-08-19T00:12:17;4.80;;;3.17;;
43511;SDS011;34054;52.100;5.116;2022-08-19T00:12:49;3.25;;;2.55;;
43511;SDS011;34054;52.100;5.116;2022-08-19T00:13:21;7.30;;;3.38;;
43511;SDS011;34054;52.100;5.116;2022-08-19T00:13:54;4.43;;;3.88;;
43511;SDS011;34054;52.100;5.116;2022-08-19T00:14:27;3.70;;;2.85;;
43511;SDS011;34054;52.100;5.116;2022-08-19T00:15:02;2.45;;;2.25;;
43511;SDS011;34054;52.100;5.116;2022-08-19T00:15:35;3.90;;;2.78;;
43511;SDS011;34054;52.100;5.116;2022-08-19T00:16:07;5.65;;;2.97;;
43511;SDS011;34054;52.100;5.116;2022-08-19T00:16:40;3.15;;;2.22;;
43511;SDS011;34054;52.100;5.116;2022-08-19T00:17:14;2.63;;;2.13;;
43511;SDS011;34054;52.100;5.116;2022-08-19T00:17:45;2.92;;;2.42;;
43511;SDS011;34054;52.100;5.116;2022-08-19T00:18:19;10.15;;;3.30;;
43511;SDS011;34054;52.100;5.116;2022-08-19T00:18:50;3.67;;;2.80;;
43511;SDS011;34054;52.100;5.116;2022-08-19T00:19:22;10.18;;;3.72;;
43511;SDS011;34054;52.100;5.116;2022-08-19T00:19:55;3.67;;;2.72;;
43511;SDS011;34054;52.100;5.116;2022-08-19T00:20:27;4.22;;;3.33;;
43511;SDS011;34054;52.100;5.116;2022-08-19T00:20:59;3.60;;;2.50;;
43511;SDS011;34054;52.100;5.116;2022-08-19T00:21:31;5.45;;;3.72;;
43511;SDS011;34054;52.100;5.116;2022-08-19T00:22:03;9.18;;;2.55;;
43511;SDS011;34054;52.100;5.116;2022-08-19T00:22:35;6.03;;;2.85;;
43511;SDS011;34054;52.100;5.116;2022-08-19T00:23:08;12.20;;;3.60;;
43511;SDS011;34054;52.100;5.116;2022-08-19T00:23:40;3.42;;;2.78;;
43511;SDS011;34054;52.100;5.116;2022-08-19T00:24:15;4.75;;;3.45;;
43511;SDS011;34054;52.100;5.116;2022-08-19T00:24:47;4.45;;;2.70;;
43511;SDS011;34054;52.100;5.116;2022-08-19T00:25:19;7.93;;;3.88;;
43511;SDS011;34054;52.100;5.116;2022-08-19T00:25:50;4.20;;;3.80;;
43511;SDS011;34054;52.100;5.116;2022-08-19T00:26:23;4.00;;;2.65;;
43511;SDS011;34054;52.100;5.116;2022-08-19T00:26:55;10.15;;;4.63;;
43511;SDS011;34054;52.100;5.116;2022-08-19T00:27:27;3.75;;;2.63;;
43511;SDS011;34054;52.100;5.116;2022-08-19T00:28:00;4.25;;;3.10;;
43511;SDS011;34054;52.100;5.116;2022-08-19T00:28:32;2.75;;;2.55;;
43511;SDS011;34054;52.100;5.116;2022-08-19T00:29:07;5.55;;;3.22;;
43511;SDS011;34054;52.100;5.116;2022-08-19T00:29:42;6.03;;;4.22;;
43511;SDS011;34054;52.100;5.116;2022-08-19T00:30:14;3.17;;;2.88;;
43511;SDS011;34054;52.100;5.116;2022-08-19T00:30:46;3.85;;;2.83;;
43511;SDS011;34054;52.100;5.116;2022-08-19T00:31:18;4.88;;;3.33;;
43511;SDS011;34054;52.100;5.116;2022-08-19T00:31:51;5.30;;;2.63;;
43511;SDS011;34054;52.100;5.116;2022-08-19T00:32:25;3.90;;;3.15;;
43511;SDS011;34054;52.100;5.116;2022-08-19T00:32:57;7.60;;;3.28;;
43511;SDS011;34054;52.100;5.116;2022-08-19T00:33:29;4.43;;;3.85;;
43511;SDS011;34054;52.100;5.116;2022-08-19T00:34:03;5.43;;;3.08;;
43511;SDS011;34054;52.100;5.116;2022-08-19T00:34:35;3.92;;;2.53;;
43511;SDS011;34054;52.100;5.116;2022-08-19T00:35:07;8.13;;;3.30;;
43511;SDS011;34054;52.100;5.116;2022-08-19T00:35:40;2.80;;;2.13;;
43511;SDS011;34054;52.100;5.116;2022-08-19T00:36:13;3.25;;;2.13;;
43511;SDS011;34054;52.100;5.116;2022-08-19T00:36:44;4.68;;;3.20;;
43511;SDS011;34054;52.100;5.116;2022-08-19T00:37:16;4.70;;;3.33;;
43511;SDS011;34054;52.100;5.116;2022-08-19T00:37:49;4.35;;;3.83;;
43511;SDS011;34054;52.100;5.116;2022-08-19T00:38:22;4.97;;;2.53;;
43511;SDS011;34054;52.100;5.116;2022-08-19T00:38:53;3.45;;;3.15;;
43511;SDS011;34054;52.100;5.116;2022-08-19T00:39:27;12.85;;;3.35;;
43511;SDS011;34054;52.100;5.116;2022-08-19T00:39:58;10.70;;;2.22;;
43511;SDS011;34054;52.100;5.116;2022-08-19T00:40:31;3.17;;;2.58;;
43511;SDS011;34054;52.100;5.116;2022-08-19T00:41:04;3.92;;;3.10;;
43511;SDS011;34054;52.100;5.116;2022-08-19T00:41:36;2.33;;;1.77;;
43511;SDS011;34054;52.100;5.116;2022-08-19T00:42:07;3.67;;;2.47;;
43511;SDS011;34054;52.100;5.116;2022-08-19T00:42:40;3.20;;;2.67;;
43511;SDS011;34054;52.100;5.116;2022-08-19T00:43:12;3.80;;;2.90;;
43511;SDS011;34054;52.100;5.116;2022-08-19T00:43:58;2.72;;;2.35;;
43511;SDS011;34054;52.100;5.116;2022-08-19T00:44:33;3.03;;;2.72;;
43511;SDS011;34054;52.100;5.116;2022-08-19T00:45:08;8.43;;;2.85;;
43511;SDS011;34054;52.100;5.116;2022-08-19T00:45:48;4.18;;;3.55;;
43511;SDS011;34054;52.100;5.116;2022-08-19T00:46:20;5.00;;;3.75;;
43511;SDS011;34054;52.100;5.116;2022-08-19T00:46:52;6.00;;;3.33;;
43511;SDS011;34054;52.100;5.116;2022-08-19T00:47:29;4.35;;;2.70;;
43511;SDS011;34054;52.100;5.116;2022-08-19T00:48:01;3.53;;;2.85;;
43511;SDS011;34054;52.100;5.116;2022-08-19T00:48:35;3.40;;;3.10;;
43511;SDS011;34054;52.100;5.116;2022-08-19T00:49:09;3.47;;;2.88;;
43511;SDS011;34054;52.100;5.116;2022-08-19T00:49:46;5.72;;;4.00;;
43511;SDS011;34054;52.100;5.116;2022-08-19T00:50:22;6.28;;;3.88;;
43511;SDS011;34054;52.100;5.116;2022-08-19T00:50:56;3.72;;;3.00;;
43511;SDS011;34054;52.100;5.116;2022-08-19T00:51:29;6.70;;;3.85;;
43511;SDS011;34054;52.100;5.116;2022-08-19T00:52:04;3.65;;;2.63;;
43511;SDS011;34054;52.100;5.116;2022-08-19T00:53:20;2.75;;;2.38;;
43511;SDS011;34054;52.100;5.116;2022-08-19T00:53:55;6.07;;;4.07;;
43511;SDS011;34054;52.100;5.116;2022-08-19T00:54:32;4.03;;;2.97;;
43511;SDS011;34054;52.100;5.116;2022-08-19T00:55:07;5.50;;;4.22;;
43511;SDS011;34054;52.100;5.116;2022-08-19T00:55:42;5.00;;;2.53;;
43511;SDS011;34054;52.100;5.116;2022-08-19T00:56:21;4.15;;;3.03;;
43511;SDS011;34054;52.100;5.116;2022-08-19T00:56:53;5.38;;;2.88;;
43511;SDS011;34054;52.100;5.116;2022-08-19T00:57:27;3.38;;;2.45;;
43511;SDS011;34054;52.100;5.116;2022-08-19T00:58:06;5.10;;;3.97;;
43511;SDS011;34054;52.100;5.116;2022-08-19T00:58:43;6.25;;;3.75;;
43511;SDS011;34054;52.100;5.116;2022-08-19T00:59:15;5.03;;;3.15;;
43511;SDS011;34054;52.100;5.116;2022-08-19T00:59:51;6.68;;;3.33;;
43511;SDS011;34054;52.100;5.116;2022-08-19T01:00:27;4.22;;;3.38;;
43511;SDS011;34054;52.100;5.116;2022-08-19T01:01:00;5.03;;;4.55;;
43511;SDS011;34054;52.100;5.116;2022-08-19T01:01:35;3.45;;;2.53;;
43511;SDS011;34054;52.100;5.116;2022-08-19T01:02:07;7.30;;;2.42;;
43511;SDS011;34054;52.100;5.116;2022-08-19T01:02:39;4.93;;;3.40;;
43511;SDS011;34054;52.100;5.116;2022-08-19T01:03:14;3.30;;;2.92;;
43511;SDS011;34054;52.100;5.116;2022-08-19T01:03:50;3.42;;;3.05;;
43511;SDS011;34054;52.100;5.116;2022-08-19T01:04:21;2.70;;;2.08;;
43511;SDS011;34054;52.100;5.116;2022-08-19T01:04:54;6.13;;;4.22;;
43511;SDS011;34054;52.100;5.116;2022-08-19T01:05:27;8.43;;;2.70;;
43511;SDS011;34054;52.100;5.116;2022-08-19T01:06:00;4.13;;;2.72;;
43511;SDS011;34054;52.100;5.116;2022-08-19T01:06:33;5.80;;;3.38;;
43511;SDS011;34054;52.100;5.116;2022-08-19T01:07:07;16.92;;;4.47;;
43511;SDS011;34054;52.100;5.116;2022-08-19T01:07:39;6.15;;;4.38;;
43511;SDS011;34054;52.100;5.116;2022-08-19T01:08:14;4.75;;;3.67;;
43511;SDS011;34054;52.100;5.116;2022-08-19T01:08:48;5.88;;;4.50;;
43511;SDS011;34054;52.100;5.116;2022-08-19T01:09:19;4.35;;;3.33;;
43511;SDS011;34054;52.100;5.116;2022-08-19T01:09:53;6.07;;;3.88;;
43511;SDS011;34054;52.100;5.116;2022-08-19T01:10:25;3.13;;;2.83;;
43511;SDS011;34054;52.100;5.116;2022-08-19T01:11:01;3.95;;;3.28;;
43511;SDS011;34054;52.100;5.116;2022-08-19T01:11:35;5.97;;;3.55;;
43511;SDS011;34054;52.100;5.116;2022-08-19T01:12:12;4.20;;;3.78;;
43511;SDS011;34054;52.100;5.116;2022-08-19T01:12:45;3.67;;;3.08;;
43511;SDS011;34054;52.100;5.116;2022-08-19T01:13:20;5.55;;;3.70;;
43511;SDS011;34054;52.100;5.116;2022-08-19T01:13:55;5.05;;;3.72;;
43511;SDS011;34054;52.100;5.116;2022-08-19T01:14:28;5.95;;;3.65;;
43511;SDS011;34054;52.100;5.116;2022-08-19T01:15:02;4.93;;;3.25;;
43511;SDS011;34054;52.100;5.116;2022-08-19T01:15:38;4.35;;;2.95;;
43511;SDS011;34054;52.100;5.116;2022-08-19T01:16:16;8.70;;;4.20;;
43511;SDS011;34054;52.100;5.116;2022-08-19T01:16:51;4.63;;;3.47;;
43511;SDS011;34054;52.100;5.116;2022-08-19T01:17:27;4.05;;;3.38;;
43511;SDS011;34054;52.100;5.116;2022-08-19T01:18:01;4.28;;;3.13;;
43511;SDS011;34054;52.100;5.116;2022-08-19T01:18:39;9.30;;;3.80;;
43511;SDS011;34054;52.100;5.116;2022-08-19T01:19:15;4.43;;;2.83;;
43511;SDS011;34054;52.100;5.116;2022-08-19T01:19:58;3.47;;;3.15;;
43511;SDS011;34054;52.100;5.116;2022-08-19T01:20:29;4.47;;;2.83;;
43511;SDS011;34054;52.100;5.116;2022-08-19T01:21:02;5.20;;;3.70;;
43511;SDS011;34054;52.100;5.116;2022-08-19T01:21:47;5.55;;;2.92;;
43511;SDS011;34054;52.100;5.116;2022-08-19T01:22:28;5.30;;;4.15;;
43511;SDS011;34054;52.100;5.116;2022-08-19T01:23:06;7.97;;;3.38;;
43511;SDS011;34054;52.100;5.116;2022-08-19T01:23:38;3.33;;;2.65;;
43511;SDS011;34054;52.100;5.116;2022-08-19T01:24:16;4.15;;;2.95;;
43511;SDS011;34054;52.100;5.116;2022-08-19T01:24:48;4.60;;;3.05;;
43511;SDS011;34054;52.100;5.116;2022-08-19T01:25:21;9.82;;;4.55;;
43511;SDS011;34054;52.100;5.116;2022-08-19T01:25:58;8.50;;;3.72;;
43511;SDS011;34054;52.100;5.116;2022-08-19T01:26:37;4.88;;;3.70;;
43511;SDS011;34054;52.100;5.116;2022-08-19T01:27:12;4.63;;;3.88;;
43511;SDS011;34054;52.100;5.116;2022-08-19T01:27:45;9.80;;;5.22;;
43511;SDS011;34054;52.100;5.116;2022-08-19T01:28:23;6.72;;;4.53;;
43511;SDS011;34054;52.100;5.116;2022-08-19T01:28:58;8.90;;;6.50;;
43511;SDS011;34054;52.100;5.116;2022-08-19T01:29:31;6.82;;;6.13;;
43511;SDS011;34054;52.100;5.116;2022-08-19T01:30:06;5.93;;;5.40;;
43511;SDS011;34054;52.100;5.116;2022-08-19T01:30:41;6.72;;;5.03;;
43511;SDS011;34054;52.100;5.116;2022-08-19T01:31:14;7.35;;;6.57;;
43511;SDS011;34054;52.100;5.116;2022-08-19T01:31:51;12.68;;;5.82;;
43511;SDS011;34054;52.100;5.116;2022-08-19T01:32:24;6.85;;;6.13;;
43511;SDS011;34054;52.100;5.116;2022-08-19T01:32:55;10.88;;;9.32;;
43511;SDS011;34054;52.100;5.116;2022-08-19T01:33:30;10.50;;;8.80;;
43511;SDS011;34054;52.100;5.116;2022-08-19T01:34:02;9.77;;;8.75;;
43511;SDS011;34054;52.100;5.116;2022-08-19T01:34:35;11.68;;;10.45;;
43511;SDS011;34054;52.100;5.116;2022-08-19T01:35:07;13.07;;;11.77;;
43511;SDS011;34054;52.100;5.116;2022-08-19T01:35:41;12.75;;;11.05;;
43511;SDS011;34054;52.100;5.116;2022-08-19T01:36:22;12.10;;;10.13;;
43511;SDS011;34054;52.100;5.116;2022-08-19T01:37:00;15.07;;;13.38;;
43511;SDS011;34054;52.100;5.116;2022-08-19T01:37:43;15.10;;;13.50;;
43511;SDS011;34054;52.100;5.116;2022-08-19T01:38:20;18.08;;;16.33;;
43511;SDS011;34054;52.100;5.116;2022-08-19T01:38:57;16.83;;;15.38;;
43511;SDS011;34054;52.100;5.116;2022-08-19T01:39:30;14.20;;;12.63;;
43511;SDS011;34054;52.100;5.116;2022-08-19T01:40:03;14.13;;;12.65;;
43511;SDS011;34054;52.100;5.116;2022-08-19T01:40:38;13.10;;;11.88;;
43511;SDS011;34054;52.100;5.116;2022-08-19T01:41:12;12.73;;;11.50;;
43511;SDS011;34054;52.100;5.116;2022-08-19T01:41:45;15.40;;;13.50;;
43511;SDS011;34054;52.100;5.116;2022-08-19T01:42:17;24.23;;;10.75;;
43511;SDS011;34054;52.100;5.116;2022-08-19T01:42:49;15.75;;;14.23;;
43511;SDS011;34054;52.100;5.116;2022-08-19T01:43:23;14.43;;;13.18;;
43511;SDS011;34054;52.100;5.116;2022-08-19T01:43:55;14.13;;;12.82;;
43511;SDS011;34054;52.100;5.116;2022-08-19T01:44:27;18.20;;;15.20;;
43511;SDS011;34054;52.100;5.116;2022-08-19T01:44:59;15.27;;;13.73;;
43511;SDS011;34054;52.100;5.116;2022-08-19T01:45:32;15.30;;;13.13;;
43511;SDS011;34054;52.100;5.116;2022-08-19T01:46:05;18.20;;;13.38;;
43511;SDS011;34054;52.100;5.116;2022-08-19T01:46:38;13.77;;;12.35;;
43511;SDS011;34054;52.100;5.116;2022-08-19T01:47:10;19.17;;;17.27;;
43511;SDS011;34054;52.100;5.116;2022-08-19T01:47:42;17.42;;;14.38;;
43511;SDS011;34054;52.100;5.116;2022-08-19T01:48:15;19.27;;;14.90;;
43511;SDS011;34054;52.100;5.116;2022-08-19T01:48:47;17.30;;;14.77;;
43511;SDS011;34054;52.100;5.116;2022-08-19T01:49:19;18.02;;;16.10;;
43511;SDS011;34054;52.100;5.116;2022-08-19T01:49:54;15.68;;;14.25;;
43511;SDS011;34054;52.100;5.116;2022-08-19T01:50:26;17.00;;;15.40;;
43511;SDS011;34054;52.100;5.116;2022-08-19T01:50:58;14.15;;;12.23;;
43511;SDS011;34054;52.100;5.116;2022-08-19T01:51:31;15.73;;;14.05;;
43511;SDS011;34054;52.100;5.116;2022-08-19T01:52:03;21.38;;;15.02;;
43511;SDS011;34054;52.100;5.116;2022-08-19T01:52:36;19.17;;;17.13;;
43511;SDS011;34054;52.100;5.116;2022-08-19T01:53:10;13.18;;;12.18;;
43511;SDS011;34054;52.100;5.116;2022-08-19T01:53:43;16.48;;;14.88;;
43511;SDS011;34054;52.100;5.116;2022-08-19T01:54:19;14.13;;;12.70;;
43511;SDS011;34054;52.100;5.116;2022-08-19T01:54:55;15.18;;;13.75;;
43511;SDS011;34054;52.100;5.116;2022-08-19T01:55:27;17.75;;;15.40;;
43511;SDS011;34054;52.100;5.116;2022-08-19T01:55:59;18.65;;;16.95;;
43511;SDS011;34054;52.100;5.116;2022-08-19T01:56:32;16.85;;;15.32;;
43511;SDS011;34054;52.100;5.116;2022-08-19T01:57:05;15.18;;;13.57;;
43511;SDS011;34054;52.100;5.116;2022-08-19T01:57:44;18.83;;;16.65;;
43511;SDS011;34054;52.100;5.116;2022-08-19T01:58:24;21.90;;;15.02;;
43511;SDS011;34054;52.100;5.116;2022-08-19T01:59:04;16.95;;;13.88;;
43511;SDS011;34054;52.100;5.116;2022-08-19T01:59:41;24.98;;;14.35;;
43511;SDS011;34054;52.100;5.116;2022-08-19T02:00:18;17.38;;;15.40;;
43511;SDS011;34054;52.100;5.116;2022-08-19T02:00:53;15.13;;;13.52;;
43511;SDS011;34054;52.100;5.116;2022-08-19T02:01:24;13.77;;;12.68;;
43511;SDS011;34054;52.100;5.116;2022-08-19T02:01:57;15.68;;;13.25;;
43511;SDS011;34054;52.100;5.116;2022-08-19T02:02:29;13.25;;;11.95;;
43511;SDS011;34054;52.100;5.116;2022-08-19T02:03:00;16.55;;;14.98;;
43511;SDS011;34054;52.100;5.116;2022-08-19T02:03:31;21.35;;;15.40;;
43511;SDS011;34054;52.100;5.116;2022-08-19T02:04:05;16.40;;;13.75;;
43511;SDS011;34054;52.100;5.116;2022-08-19T02:04:37;17.13;;;15.60;;
43511;SDS011;34054;52.100;5.116;2022-08-19T02:05:10;15.77;;;14.15;;
43511;SDS011;34054;52.100;5.116;2022-08-19T02:05:43;15.77;;;14.15;;
43511;SDS011;34054;52.100;5.116;2022-08-19T02:06:16;16.88;;;14.70;;
43511;SDS011;34054;52.100;5.116;2022-08-19T02:06:47;18.15;;;15.57;;
43511;SDS011;34054;52.100;5.116;2022-08-19T02:07:19;18.83;;;11.82;;
43511;SDS011;34054;52.100;5.116;2022-08-19T02:07:52;16.67;;;14.93;;
43511;SDS011;34054;52.100;5.116;2022-08-19T02:08:25;16.00;;;14.50;;
43511;SDS011;34054;52.100;5.116;2022-08-19T02:08:57;15.88;;;14.30;;
43511;SDS011;34054;52.100;5.116;2022-08-19T02:09:30;16.17;;;13.55;;
43511;SDS011;34054;52.100;5.116;2022-08-19T02:10:02;23.92;;;15.27;;
43511;SDS011;34054;52.100;5.116;2022-08-19T02:10:37;13.80;;;11.68;;
43511;SDS011;34054;52.100;5.116;2022-08-19T02:11:18;15.45;;;13.77;;
43511;SDS011;34054;52.100;5.116;2022-08-19T02:11:53;19.40;;;12.35;;
43511;SDS011;34054;52.100;5.116;2022-08-19T02:12:24;16.83;;;15.10;;
43511;SDS011;34054;52.100;5.116;2022-08-19T02:12:57;13.25;;;11.93;;
43511;SDS011;34054;52.100;5.116;2022-08-19T02:13:29;16.35;;;12.43;;
43511;SDS011;34054;52.100;5.116;2022-08-19T02:14:03;18.05;;;15.18;;
43511;SDS011;34054;52.100;5.116;2022-08-19T02:14:39;20.15;;;13.52;;
43511;SDS011;34054;52.100;5.116;2022-08-19T02:15:11;14.75;;;13.32;;
43511;SDS011;34054;52.100;5.116;2022-08-19T02:15:43;15.63;;;14.25;;
43511;SDS011;34054;52.100;5.116;2022-08-19T02:16:15;24.73;;;13.82;;
43511;SDS011;34054;52.100;5.116;2022-08-19T02:16:49;13.02;;;11.10;;
43511;SDS011;34054;52.100;5.116;2022-08-19T02:17:21;17.27;;;13.48;;
43511;SDS011;34054;52.100;5.116;2022-08-19T02:17:53;14.73;;;12.50;;
43511;SDS011;34054;52.100;5.116;2022-08-19T02:18:25;13.90;;;11.63;;
43511;SDS011;34054;52.100;5.116;2022-08-19T02:18:57;20.63;;;14.65;;
43511;SDS011;34054;52.100;5.116;2022-08-19T02:19:31;16.25;;;12.93;;
43511;SDS011;34054;52.100;5.116;2022-08-19T02:20:04;17.42;;;12.75;;
43511;SDS011;34054;52.100;5.116;2022-08-19T02:20:37;12.98;;;11.68;;
43511;SDS011;34054;52.100;5.116;2022-08-19T02:21:11;12.55;;;11.45;;
43511;SDS011;34054;52.100;5.116;2022-08-19T02:21:44;16.90;;;12.50;;
43511;SDS011;34054;52.100;5.116;2022-08-19T02:22:15;12.38;;;11.18;;
43511;SDS011;34054;52.100;5.116;2022-08-19T02:22:47;14.98;;;12.70;;
43511;SDS011;34054;52.100;5.116;2022-08-19T02:23:19;15.23;;;12.23;;
43511;SDS011;34054;52.100;5.116;2022-08-19T02:23:52;14.13;;;12.73;;
43511;SDS011;34054;52.100;5.116;2022-08-19T02:24:24;14.10;;;12.60;;
43511;SDS011;34054;52.100;5.116;2022-08-19T02:24:57;14.90;;;11.32;;
43511;SDS011;34054;52.100;5.116;2022-08-19T02:25:29;20.33;;;13.13;;
43511;SDS011;34054;52.100;5.116;2022-08-19T02:26:00;13.32;;;11.40;;
43511;SDS011;34054;52.100;5.116;2022-08-19T02:26:33;13.57;;;12.23;;
43511;SDS011;34054;52.100;5.116;2022-08-19T02:27:05;13.63;;;12.30;;
43511;SDS011;34054;52.100;5.116;2022-08-19T02:27:36;14.02;;;12.40;;
43511;SDS011;34054;52.100;5.116;2022-08-19T02:28:08;24.92;;;12.90;;
43511;SDS011;34054;52.100;5.116;2022-08-19T02:28:41;14.00;;;11.63;;
43511;SDS011;34054;52.100;5.116;2022-08-19T02:29:13;14.98;;;12.50;;
43511;SDS011;34054;52.100;5.116;2022-08-19T02:29:45;24.77;;;11.50;;
43511;SDS011;34054;52.100;5.116;2022-08-19T02:30:20;16.63;;;15.00;;
43511;SDS011;34054;52.100;5.116;2022-08-19T02:30:52;14.32;;;12.90;;
43511;SDS011;34054;52.100;5.116;2022-08-19T02:31:24;15.18;;;10.75;;
43511;SDS011;34054;52.100;5.116;2022-08-19T02:31:59;11.82;;;10.63;;
43511;SDS011;34054;52.100;5.116;2022-08-19T02:32:30;21.05;;;15.30;;
43511;SDS011;34054;52.100;5.116;2022-08-19T02:33:03;13.00;;;11.35;;
43511;SDS011;34054;52.100;5.116;2022-08-19T02:33:35;12.43;;;9.82;;
43511;SDS011;34054;52.100;5.116;2022-08-19T02:34:07;14.55;;;13.02;;
43511;SDS011;34054;52.100;5.116;2022-08-19T02:34:39;14.20;;;12.73;;
43511;SDS011;34054;52.100;5.116;2022-08-19T02:35:12;14.88;;;11.88;;
43511;SDS011;34054;52.100;5.116;2022-08-19T02:35:45;14.45;;;12.82;;
43511;SDS011;34054;52.100;5.116;2022-08-19T02:36:18;16.63;;;11.82;;
43511;SDS011;34054;52.100;5.116;2022-08-19T02:36:50;12.85;;;11.55;;
43511;SDS011;34054;52.100;5.116;2022-08-19T02:37:22;16.73;;;12.43;;
43511;SDS011;34054;52.100;5.116;2022-08-19T02:38:13;17.27;;;13.85;;
43511;SDS011;34054;52.100;5.116;2022-08-19T02:38:59;11.10;;;9.95;;
43511;SDS011;34054;52.100;5.116;2022-08-19T02:39:31;14.57;;;12.15;;
43511;SDS011;34054;52.100;5.116;2022-08-19T02:40:03;12.82;;;11.55;;
43511;SDS011;34054;52.100;5.116;2022-08-19T02:40:36;13.48;;;12.10;;
43511;SDS011;34054;52.100;5.116;2022-08-19T02:41:10;14.00;;;11.43;;
43511;SDS011;34054;52.100;5.116;2022-08-19T02:41:47;14.15;;;12.75;;
43511;SDS011;34054;52.100;5.116;2022-08-19T02:42:20;18.48;;;13.45;;
43511;SDS011;34054;52.100;5.116;2022-08-19T02:42:51;12.15;;;10.95;;
43511;SDS011;34054;52.100;5.116;2022-08-19T02:43:24;14.50;;;13.05;;
43511;SDS011;34054;52.100;5.116;2022-08-19T02:43:58;17.80;;;11.88;;
43511;SDS011;34054;52.100;5.116;2022-08-19T02:44:32;14.77;;;13.38;;
43511;SDS011;34054;52.100;5.116;2022-08-19T02:45:05;14.75;;;12.10;;
43511;SDS011;34054;52.100;5.116;2022-08-19T02:45:38;11.40;;;10.30;;
43511;SDS011;34054;52.100;5.116;2022-08-19T02:46:14;10.68;;;9.77;;
43511;SDS011;34054;52.100;5.116;2022-08-19T02:46:51;14.63;;;12.35;;
43511;SDS011;34054;52.100;5.116;2022-08-19T02:47:23;11.85;;;10.63;;
43511;SDS011;34054;52.100;5.116;2022-08-19T02:47:54;13.23;;;11.93;;
43511;SDS011;34054;52.100;5.116;2022-08-19T02:48:27;16.23;;;11.93;;
43511;SDS011;34054;52.100;5.116;2022-08-19T02:49:01;14.93;;;11.95;;
43511;SDS011;34054;52.100;5.116;2022-08-19T02:49:36;14.48;;;12.82;;
43511;SDS011;34054;52.100;5.116;2022-08-19T02:50:08;16.35;;;12.98;;
43511;SDS011;34054;52.100;5.116;2022-08-19T02:50:41;15.50;;;12.57;;
43511;SDS011;34054;52.100;5.116;2022-08-19T02:51:15;13.77;;;12.38;;
43511;SDS011;34054;52.100;5.116;2022-08-19T02:51:48;14.13;;;12.75;;
43511;SDS011;34054;52.100;5.116;2022-08-19T02:52:21;13.80;;;12.18;;
43511;SDS011;34054;52.100;5.116;2022-08-19T02:52:54;14.80;;;13.43;;
43511;SDS011;34054;52.100;5.116;2022-08-19T02:53:26;13.48;;;10.88;;
43511;SDS011;34054;52.100;5.116;2022-08-19T02:54:01;12.98;;;11.57;;
43511;SDS011;34054;52.100;5.116;2022-08-19T02:54:34;16.05;;;13.38;;
43511;SDS011;34054;52.100;5.116;2022-08-19T02:55:06;16.48;;;12.75;;
43511;SDS011;34054;52.100;5.116;2022-08-19T02:55:43;17.85;;;12.77;;
43511;SDS011;34054;52.100;5.116;2022-08-19T02:56:16;15.25;;;13.38;;
43511;SDS011;34054;52.100;5.116;2022-08-19T02:56:48;14.68;;;13.27;;
43511;SDS011;34054;52.100;5.116;2022-08-19T02:57:21;15.35;;;13.15;;
43511;SDS011;34054;52.100;5.116;2022-08-19T02:57:52;16.45;;;13.60;;
43511;SDS011;34054;52.100;5.116;2022-08-19T02:58:24;15.63;;;13.65;;
43511;SDS011;34054;52.100;5.116;2022-08-19T02:58:58;17.05;;;14.63;;
43511;SDS011;34054;52.100;5.116;2022-08-19T02:59:29;16.77;;;15.13;;
43511;SDS011;34054;52.100;5.116;2022-08-19T03:00:03;19.25;;;14.50;;
43511;SDS011;34054;52.100;5.116;2022-08-19T03:00:42;14.88;;;13.23;;
43511;SDS011;34054;52.100;5.116;2022-08-19T03:01:19;12.38;;;11.15;;
43511;SDS011;34054;52.100;5.116;2022-08-19T03:01:52;13.85;;;11.88;;
43511;SDS011;34054;52.100;5.116;2022-08-19T03:02:25;14.25;;;12.82;;
43511;SDS011;34054;52.100;5.116;2022-08-19T03:02:57;14.02;;;11.93;;
43511;SDS011;34054;52.100;5.116;2022-08-19T03:03:29;14.13;;;11.77;;
43511;SDS011;34054;52.100;5.116;2022-08-19T03:04:03;16.52;;;15.05;;
43511;SDS011;34054;52.100;5.116;2022-08-19T03:04:38;12.82;;;11.60;;
43511;SDS011;34054;52.100;5.116;2022-08-19T03:05:09;14.95;;;12.73;;
43511;SDS011;34054;52.100;5.116;2022-08-19T03:05:43;17.08;;;14.60;;
43511;SDS011;34054;52.100;5.116;2022-08-19T03:06:15;17.85;;;14.77;;
43511;SDS011;34054;52.100;5.116;2022-08-19T03:06:47;15.40;;;13.75;;
43511;SDS011;34054;52.100;5.116;2022-08-19T03:07:20;15.80;;;14.23;;
43511;SDS011;34054;52.100;5.116;2022-08-19T03:07:52;13.38;;;12.07;;
43511;SDS011;34054;52.100;5.116;2022-08-19T03:08:23;14.70;;;12.60;;
43511;SDS011;34054;52.100;5.116;2022-08-19T03:08:57;14.00;;;12.23;;
43511;SDS011;34054;52.100;5.116;2022-08-19T03:09:30;16.67;;;13.23;;
43511;SDS011;34054;52.100;5.116;2022-08-19T03:10:02;18.33;;;13.98;;
43511;SDS011;34054;52.100;5.116;2022-08-19T03:10:39;16.30;;;14.23;;
43511;SDS011;34054;52.100;5.116;2022-08-19T03:11:16;17.10;;;13.77;;
43511;SDS011;34054;52.100;5.116;2022-08-19T03:11:51;19.40;;;12.60;;
43511;SDS011;34054;52.100;5.116;2022-08-19T03:12:23;13.35;;;12.05;;
43511;SDS011;34054;52.100;5.116;2022-08-19T03:12:55;27.55;;;13.38;;
43511;SDS011;34054;52.100;5.116;2022-08-19T03:13:27;13.55;;;12.25;;
43511;SDS011;34054;52.100;5.116;2022-08-19T03:13:59;16.73;;;14.98;;
43511;SDS011;34054;52.100;5.116;2022-08-19T03:14:32;18.65;;;14.70;;
43511;SDS011;34054;52.100;5.116;2022-08-19T03:15:06;21.00;;;13.55;;
43511;SDS011;34054;52.100;5.116;2022-08-19T03:15:40;16.63;;;14.93;;
43511;SDS011;34054;52.100;5.116;2022-08-19T03:16:15;14.57;;;13.05;;
43511;SDS011;34054;52.100;5.116;2022-08-19T03:16:49;16.77;;;14.50;;
43511;SDS011;34054;52.100;5.116;2022-08-19T03:17:22;29.55;;;13.57;;
43511;SDS011;34054;52.100;5.116;2022-08-19T03:17:54;15.68;;;14.05;;
43511;SDS011;34054;52.100;5.116;2022-08-19T03:18:26;13.68;;;12.10;;
43511;SDS011;34054;52.100;5.116;2022-08-19T03:18:58;14.13;;;12.80;;
43511;SDS011;34054;52.100;5.116;2022-08-19T03:19:31;17.90;;;13.98;;
43511;SDS011;34054;52.100;5.116;2022-08-19T03:20:03;16.98;;;15.15;;